Time;durP1;ratioP1;P1;durP2;ratioP2;P2;SDS_P1;SDS_P2;PMS_P1;PMS_P2;Temp;Humidity;BMP_temperature;BMP_pressure;BME280_temperature;BME280_humidity;BME280_pressure;Samples;Min_cycle;Max_cycle;Signal;HPM_P1;HPM_P2
2021/04/07 00:00:00;;;;;;;3.42;2.20;;;2.10;99.90;;;;;;5060207;28;20203;-84
2021/04/07 00:02:27;;;;;;;8.38;2.30;;;2.20;99.90;;;;;;5060585;28;20206;-85
2021/04/07 00:04:59;;;;;;;2.47;2.28;;;2.20;99.90;;;;;;5058932;28;20230;-85
2021/04/07 00:07:27;;;;;;;3.30;1.90;;;2.20;99.90;;;;;;5059965;28;20709;-85
2021/04/07 00:09:53;;;;;;;6.97;2.35;;;2.20;99.90;;;;;;5060741;28;20662;-84
2021/04/07 00:12:19;;;;;;;3.92;1.83;;;2.20;99.90;;;;;;5060104;28;20661;-85
2021/04/07 00:14:46;;;;;;;4.32;2.25;;;2.20;99.90;;;;;;5057599;28;20309;-85
2021/04/07 00:17:12;;;;;;;3.83;2.33;;;2.20;99.90;;;;;;5057778;28;20238;-85
2021/04/07 00:19:40;;;;;;;4.28;1.92;;;2.40;99.90;;;;;;5057889;28;20238;-85
2021/04/07 00:22:06;;;;;;;7.43;2.60;;;2.20;99.90;;;;;;5057887;28;20210;-85
2021/04/07 00:24:33;;;;;;;4.15;2.00;;;2.10;99.90;;;;;;5057199;28;20643;-85
2021/04/07 00:27:05;;;;;;;3.28;2.35;;;1.10;99.90;;;;;;5057197;28;20237;-85
2021/04/07 00:29:31;;;;;;;7.05;2.80;;;2.10;99.90;;;;;;5059234;28;20183;-85
2021/04/07 00:31:58;;;;;;;3.75;2.80;;;1.90;99.90;;;;;;5059948;28;20233;-85
2021/04/07 00:34:24;;;;;;;3.22;2.75;;;2.00;99.90;;;;;;5066862;28;20219;-85
2021/04/07 00:36:51;;;;;;;6.47;2.30;;;2.20;99.90;;;;;;5070781;28;20203;-85
2021/04/07 00:39:17;;;;;;;6.00;2.63;;;2.10;99.90;;;;;;5063698;28;20207;-85
2021/04/07 00:41:43;;;;;;;4.35;2.15;;;2.10;99.90;;;;;;5075200;28;20203;-85
2021/04/07 00:44:10;;;;;;;8.38;2.67;;;2.20;99.90;;;;;;5070499;28;20662;-85
2021/04/07 00:46:36;;;;;;;5.05;2.03;;;2.20;99.90;;;;;;5066612;28;20206;-86
2021/04/07 00:49:08;;;;;;;3.85;2.60;;;2.10;99.90;;;;;;5073381;28;20203;-86
2021/04/07 00:51:35;;;;;;;5.40;2.88;;;2.20;99.90;;;;;;5079574;28;20188;-85
2021/04/07 00:54:04;;;;;;;3.58;2.47;;;2.00;99.90;;;;;;5072950;28;20226;-85
2021/04/07 00:56:30;;;;;;;3.17;2.13;;;2.10;99.90;;;;;;5075101;28;20210;-85
2021/04/07 00:58:56;;;;;;;3.92;2.30;;;2.10;99.90;;;;;;5079716;28;20282;-85
2021/04/07 01:01:23;;;;;;;4.22;2.92;;;2.20;99.90;;;;;;5072251;28;20207;-85
2021/04/07 01:03:49;;;;;;;3.30;1.95;;;2.20;99.90;;;;;;5064966;28;20265;-85
2021/04/07 01:06:16;;;;;;;2.72;2.30;;;2.20;99.90;;;;;;5064052;28;20665;-85
2021/04/07 01:08:42;;;;;;;5.63;3.05;;;2.30;99.90;;;;;;5063032;28;20245;-85
2021/04/07 01:11:10;;;;;;;2.38;2.00;;;2.20;99.90;;;;;;5062800;28;20207;-85
2021/04/07 01:13:36;;;;;;;3.75;3.25;;;2.60;99.90;;;;;;5063037;28;20258;-85
2021/04/07 01:16:02;;;;;;;4.07;2.60;;;2.30;99.90;;;;;;5063518;28;20207;-85
2021/04/07 01:18:31;;;;;;;5.05;3.13;;;2.30;99.90;;;;;;5062572;28;20203;-86
2021/04/07 01:20:58;;;;;;;3.72;2.70;;;2.20;99.90;;;;;;5064003;28;20570;-86
2021/04/07 01:23:24;;;;;;;2.45;2.22;;;2.10;99.90;;;;;;5065339;28;20215;-85
2021/04/07 01:25:51;;;;;;;4.10;2.40;;;2.10;99.90;;;;;;5063531;28;20207;-85
2021/04/07 01:28:17;;;;;;;6.40;2.70;;;2.10;99.90;;;;;;5061670;28;20556;-85
2021/04/07 01:30:46;;;;;;;4.25;1.70;;;2.20;99.90;;;;;;5062003;28;20210;-86
2021/04/07 01:33:23;;;;;;;5.35;3.10;;;2.20;99.90;;;;;;5062727;28;20219;-86
2021/04/07 01:35:51;;;;;;;3.35;2.42;;;3.00;99.90;;;;;;5062349;28;20199;-85
2021/04/07 01:38:18;;;;;;;6.03;2.90;;;2.30;99.90;;;;;;5061739;28;20202;-85
2021/04/07 01:40:46;;;;;;;4.15;2.55;;;2.10;99.90;;;;;;5062977;28;20207;-86
2021/04/07 01:43:16;;;;;;;4.78;2.67;;;2.30;99.90;;;;;;5063057;28;20231;-86
2021/04/07 01:45:44;;;;;;;6.15;2.80;;;2.00;99.90;;;;;;5066477;28;20214;-85
2021/04/07 01:48:11;;;;;;;4.57;2.10;;;2.10;99.90;;;;;;5073718;28;20209;-85
2021/04/07 01:50:39;;;;;;;4.03;2.17;;;2.10;99.90;;;;;;5073963;28;20207;-86
2021/04/07 01:53:06;;;;;;;7.38;2.72;;;1.90;99.90;;;;;;5078456;28;20217;-86
2021/04/07 01:55:32;;;;;;;4.28;3.08;;;2.40;99.90;;;;;;5076195;28;20207;-85
2021/04/07 01:57:59;;;;;;;7.53;3.13;;;2.20;99.90;;;;;;5072037;28;20233;-85
2021/04/07 02:00:26;;;;;;;3.38;2.22;;;2.20;99.90;;;;;;5070050;28;20222;-85
2021/04/07 02:02:55;;;;;;;4.13;2.58;;;2.20;99.90;;;;;;5061602;28;20207;-86
2021/04/07 02:05:21;;;;;;;5.53;3.20;;;2.60;99.90;;;;;;5060992;28;20230;-85
2021/04/07 02:07:48;;;;;;;5.95;3.28;;;2.20;99.90;;;;;;5061273;28;20328;-85
2021/04/07 02:10:15;;;;;;;11.48;2.58;;;1.80;99.90;;;;;;5060154;28;20257;-86
2021/04/07 02:12:41;;;;;;;3.75;2.50;;;2.00;99.90;;;;;;5059244;28;20203;-86
2021/04/07 02:15:13;;;;;;;4.60;2.40;;;2.10;99.90;;;;;;5061300;28;20272;-85
2021/04/07 02:17:40;;;;;;;3.97;2.55;;;1.90;99.90;;;;;;5061555;28;20621;-86
2021/04/07 02:20:09;;;;;;;6.03;2.38;;;2.10;99.90;;;;;;5062684;28;20203;-86
2021/04/07 02:22:37;;;;;;;3.08;2.10;;;2.20;99.90;;;;;;5061214;28;20260;-86
2021/04/07 02:25:07;;;;;;;4.68;3.08;;;2.10;99.90;;;;;;5060850;28;20235;-86
2021/04/07 02:27:35;;;;;;;8.23;2.15;;;2.10;99.90;;;;;;5061443;28;20202;-86
2021/04/07 02:30:01;;;;;;;2.85;2.03;;;2.20;99.90;;;;;;5060915;28;20203;-86
2021/04/07 02:32:28;;;;;;;4.65;2.63;;;2.10;99.90;;;;;;5060578;28;20257;-86
2021/04/07 02:34:55;;;;;;;6.95;2.60;;;2.00;99.90;;;;;;5060764;28;20234;-86
2021/04/07 02:37:21;;;;;;;3.13;2.47;;;2.10;99.90;;;;;;5060807;28;20225;-86
2021/04/07 02:39:48;;;;;;;3.47;2.90;;;2.10;99.90;;;;;;5060996;28;20206;-85
2021/04/07 02:42:17;;;;;;;7.00;2.30;;;2.30;99.90;;;;;;5060383;28;20253;-85
2021/04/07 02:44:43;;;;;;;5.10;2.70;;;2.10;99.90;;;;;;5059966;28;20250;-85
2021/04/07 02:47:10;;;;;;;6.68;3.00;;;1.90;99.90;;;;;;5060844;28;20206;-85
2021/04/07 02:49:36;;;;;;;5.43;2.38;;;2.10;99.90;;;;;;5058139;28;20208;-85
2021/04/07 02:52:04;;;;;;;3.42;2.25;;;2.00;99.90;;;;;;5058874;28;20205;-85
2021/04/07 02:54:32;;;;;;;4.18;2.38;;;2.20;99.90;;;;;;5060497;28;20227;-85
2021/04/07 02:57:04;;;;;;;7.85;2.50;;;1.80;99.90;;;;;;5061344;28;20236;-85
2021/04/07 02:59:41;;;;;;;3.15;2.75;;;;;;;;;;5062164;28;20194;-86
2021/04/07 03:02:17;;;;;;;9.30;2.53;;;;;;;;;;5069015;28;20259;-86
2021/04/07 03:04:50;;;;;;;3.53;2.50;;;;;;;;;;5065514;28;20253;-86
2021/04/07 03:07:22;;;;;;;3.03;2.83;;;;;;;;;;5067878;28;20241;-86
2021/04/07 03:09:51;;;;;;;3.58;2.80;;;;;;;;;;5065524;28;20211;-86
2021/04/07 03:12:22;;;;;;;4.13;2.70;;;1.80;99.90;;;;;;5061199;28;20198;-86
2021/04/07 03:14:51;;;;;;;9.35;3.28;;;;;;;;;;5061693;28;20265;-86
2021/04/07 03:17:19;;;;;;;7.55;2.40;;;;;;;;;;5061751;28;20202;-86
2021/04/07 03:19:50;;;;;;;6.18;2.90;;;1.90;99.90;;;;;;5063381;28;20199;-86
2021/04/07 03:22:16;;;;;;;7.90;3.30;;;;;;;;;;5068335;28;20195;-85
2021/04/07 03:24:44;;;;;;;3.53;2.88;;;;;;;;;;5060980;28;20322;-86
2021/04/07 03:27:10;;;;;;;6.43;3.45;;;;;;;;;;5065329;28;20206;-85
2021/04/07 03:29:40;;;;;;;5.85;2.78;;;;;;;;;;5073179;28;20207;-85
2021/04/07 03:32:11;;;;;;;3.97;2.90;;;2.00;99.90;;;;;;5072279;28;20305;-85
2021/04/07 03:34:37;;;;;;;3.10;2.40;;;;;;;;;;5068964;28;20432;-85
2021/04/07 03:37:03;;;;;;;5.10;3.22;;;1.80;99.90;;;;;;5065895;28;20452;-86
2021/04/07 03:39:30;;;;;;;9.57;3.70;;;;;;;;;;5064131;28;20463;-85
2021/04/07 03:42:03;;;;;;;4.68;3.28;;;;;;;;;;5062061;28;20203;-86
2021/04/07 03:44:30;;;;;;;4.85;2.40;;;;;;;;;;5061392;28;20454;-86
2021/04/07 03:46:59;;;;;;;3.58;3.10;;;;;;;;;;5061379;28;20199;-86
2021/04/07 03:49:26;;;;;;;3.83;3.38;;;;;;;;;;5060023;28;20356;-86
2021/04/07 03:51:53;;;;;;;5.80;2.58;;;;;;;;;;5058197;28;20614;-86
2021/04/07 03:54:19;;;;;;;5.90;2.70;;;;;;;;;;5059304;28;20276;-86
2021/04/07 03:56:46;;;;;;;2.78;2.40;;;;;;;;;;5057604;28;20207;-86
2021/04/07 03:59:13;;;;;;;6.85;3.00;;;1.80;99.90;;;;;;5057714;28;20218;-86
2021/04/07 04:01:39;;;;;;;6.85;2.90;;;;;;;;;;5059435;28;20697;-86
2021/04/07 04:04:06;;;;;;;7.55;4.07;;;;;;;;;;5058953;28;20232;-86
2021/04/07 04:06:33;;;;;;;7.47;3.90;;;;;;;;;;5059312;28;20212;-86
2021/04/07 04:08:59;;;;;;;7.18;3.72;;;2.10;99.90;;;;;;5059954;28;20233;-85
2021/04/07 04:11:26;;;;;;;5.90;3.58;;;;;;;;;;5063787;28;20234;-86
2021/04/07 04:13:52;;;;;;;8.05;3.50;;;2.40;99.90;;;;;;5072355;28;20341;-85
2021/04/07 04:16:19;;;;;;;5.43;3.03;;;2.30;99.90;;;;;;5071617;28;20435;-85
2021/04/07 04:18:45;;;;;;;4.88;3.08;;;2.00;99.90;;;;;;5067516;28;20195;-85
2021/04/07 04:21:21;;;;;;;5.68;3.65;;;2.20;99.90;;;;;;5077357;28;20269;-85
2021/04/07 04:23:47;;;;;;;8.93;3.05;;;2.10;99.90;;;;;;5090702;22;20241;-85
2021/04/07 04:26:13;;;;;;;5.95;3.95;;;2.10;99.90;;;;;;5063804;28;20203;-85
2021/04/07 04:28:39;;;;;;;4.10;3.03;;;2.10;99.90;;;;;;5061523;28;20199;-85
2021/04/07 04:31:05;;;;;;;5.30;3.28;;;2.10;99.90;;;;;;5062389;28;20199;-84
2021/04/07 04:33:32;;;;;;;6.72;2.70;;;2.10;99.90;;;;;;5076937;28;20229;-85
2021/04/07 04:35:58;;;;;;;5.50;3.10;;;2.50;99.90;;;;;;5071108;28;20218;-85
2021/04/07 04:38:24;;;;;;;9.15;3.55;;;2.20;99.90;;;;;;5063423;28;20195;-85
2021/04/07 04:40:50;;;;;;;9.43;3.53;;;2.10;99.90;;;;;;5060140;28;20209;-85
2021/04/07 04:43:17;;;;;;;8.35;3.45;;;1.90;99.90;;;;;;5059910;28;20207;-85
2021/04/07 04:45:43;;;;;;;6.95;3.85;;;2.20;99.90;;;;;;5060952;28;20249;-83
2021/04/07 04:48:09;;;;;;;4.97;4.18;;;2.10;99.90;;;;;;5066698;28;20203;-83
2021/04/07 04:50:36;;;;;;;6.95;4.25;;;2.30;99.90;;;;;;5061119;28;20195;-84
2021/04/07 04:53:02;;;;;;;4.85;3.28;;;2.20;99.90;;;;;;5059834;28;20658;-84
2021/04/07 04:55:29;;;;;;;4.57;3.67;;;2.10;99.90;;;;;;5057928;28;20763;-83
2021/04/07 04:57:56;;;;;;;9.68;3.20;;;2.00;99.90;;;;;;5057685;28;20701;-83
2021/04/07 05:00:23;;;;;;;3.83;3.47;;;2.10;99.90;;;;;;5058710;28;20234;-84
2021/04/07 05:02:49;;;;;;;11.07;4.28;;;2.10;99.90;;;;;;5057804;28;20779;-85
2021/04/07 05:05:16;;;;;;;6.35;3.20;;;2.10;99.90;;;;;;5058391;28;20265;-84
2021/04/07 05:07:43;;;;;;;4.68;3.80;;;2.10;99.90;;;;;;5059263;28;20681;-83
2021/04/07 05:10:10;;;;;;;7.78;3.28;;;2.10;99.90;;;;;;5059034;28;20611;-85
2021/04/07 05:12:36;;;;;;;9.50;3.30;;;2.00;99.90;;;;;;5059701;28;20252;-85
2021/04/07 05:15:02;;;;;;;5.88;3.75;;;2.00;99.90;;;;;;5059802;28;20215;-85
2021/04/07 05:17:29;;;;;;;8.52;3.10;;;2.00;99.90;;;;;;5059804;28;20231;-85
2021/04/07 05:19:55;;;;;;;6.38;3.03;;;2.10;99.90;;;;;;5070907;28;20187;-85
2021/04/07 05:22:21;;;;;;;3.67;3.13;;;2.20;99.90;;;;;;5076731;28;20255;-85
2021/04/07 05:24:48;;;;;;;10.05;2.95;;;2.10;99.90;;;;;;5069117;28;20226;-85
2021/04/07 05:27:14;;;;;;;5.53;3.85;;;3.30;99.90;;;;;;5061280;28;20199;-85
2021/04/07 05:29:40;;;;;;;6.20;3.15;;;2.10;99.90;;;;;;5069649;28;20194;-84
2021/04/07 05:32:07;;;;;;;4.93;3.13;;;2.10;99.90;;;;;;5077537;28;20214;-84
2021/04/07 05:34:33;;;;;;;7.22;3.47;;;2.10;99.90;;;;;;5079715;28;20254;-85
2021/04/07 05:36:59;;;;;;;4.78;3.10;;;2.10;99.90;;;;;;5079390;28;20214;-84
2021/04/07 05:39:25;;;;;;;5.75;4.05;;;2.00;99.90;;;;;;5080720;28;20183;-84
2021/04/07 05:41:53;;;;;;;4.05;3.03;;;2.10;99.90;;;;;;5079575;28;20188;-85
2021/04/07 05:44:19;;;;;;;8.95;3.35;;;2.40;99.90;;;;;;5058757;28;20353;-86
2021/04/07 05:46:45;;;;;;;11.55;3.90;;;2.00;99.90;;;;;;5066757;28;20206;-83
2021/04/07 05:49:11;;;;;;;7.03;3.45;;;2.20;99.90;;;;;;5071245;28;20203;-85
2021/04/07 05:51:37;;;;;;;10.18;3.70;;;2.20;99.90;;;;;;5079890;28;20202;-84
2021/04/07 05:54:03;;;;;;;7.70;3.30;;;2.20;99.90;;;;;;5080848;28;20203;-83
2021/04/07 05:56:29;;;;;;;11.88;3.17;;;2.30;99.90;;;;;;5080649;28;20187;-83
2021/04/07 05:58:56;;;;;;;7.85;3.70;;;2.30;99.90;;;;;;5080896;28;20194;-84
2021/04/07 06:01:22;;;;;;;6.95;2.90;;;2.40;99.90;;;;;;5080638;28;20203;-84
2021/04/07 06:03:48;;;;;;;4.30;2.90;;;2.10;99.90;;;;;;5080195;28;20199;-83
2021/04/07 06:06:15;;;;;;;10.20;3.38;;;2.40;99.90;;;;;;5080797;28;20183;-83
2021/04/07 06:08:41;;;;;;;12.27;4.00;;;1.90;99.90;;;;;;5080309;28;20329;-83
2021/04/07 06:11:07;;;;;;;3.92;3.40;;;2.30;99.90;;;;;;5080241;28;20214;-85
2021/04/07 06:13:33;;;;;;;4.00;2.72;;;2.30;99.90;;;;;;5080631;28;20249;-85
2021/04/07 06:16:00;;;;;;;10.45;3.72;;;2.90;99.90;;;;;;5080250;28;20196;-83
2021/04/07 06:18:27;;;;;;;10.68;4.22;;;2.30;99.90;;;;;;5079629;28;20298;-83
2021/04/07 06:20:53;;;;;;;5.88;3.55;;;2.50;99.90;;;;;;5079827;28;20227;-83
2021/04/07 06:23:20;;;;;;;11.40;3.58;;;2.40;99.90;;;;;;5078830;28;20203;-83
2021/04/07 06:25:46;;;;;;;6.80;3.22;;;2.70;99.90;;;;;;5079534;28;20195;-84
2021/04/07 06:28:15;;;;;;;10.18;5.13;;;2.50;99.90;;;;;;5079203;28;20199;-83
2021/04/07 06:30:42;;;;;;;13.10;3.17;;;2.40;99.90;;;;;;5078924;28;20202;-84
2021/04/07 06:33:11;;;;;;;6.20;3.33;;;2.40;99.90;;;;;;5079117;28;20191;-85
2021/04/07 06:35:38;;;;;;;12.50;3.30;;;2.70;99.90;;;;;;5078532;28;20199;-83
2021/04/07 06:38:05;;;;;;;10.77;3.47;;;2.80;99.90;;;;;;5078943;28;20191;-85
2021/04/07 06:40:33;;;;;;;11.98;3.92;;;3.20;99.90;;;;;;5077742;28;20218;-84
2021/04/07 06:43:00;;;;;;;4.22;2.55;;;3.10;99.90;;;;;;5076448;28;20270;-84
2021/04/07 06:45:27;;;;;;;6.10;3.40;;;;;;;;;;5073417;28;20245;-86
2021/04/07 06:47:54;;;;;;;6.45;2.88;;;3.20;99.90;;;;;;5064326;28;20218;-85
2021/04/07 06:50:22;;;;;;;5.30;2.72;;;3.20;99.90;;;;;;5063997;28;20199;-85
2021/04/07 06:52:50;;;;;;;5.10;2.85;;;3.20;99.90;;;;;;5065731;28;20211;-85
2021/04/07 06:55:17;;;;;;;10.75;3.70;;;2.90;99.90;;;;;;5065297;28;20219;-85
2021/04/07 06:57:44;;;;;;;8.05;3.35;;;3.00;99.90;;;;;;5066359;28;20206;-85
2021/04/07 07:00:12;;;;;;;10.45;4.60;;;2.80;99.90;;;;;;5064902;28;20207;-86
2021/04/07 07:02:38;;;;;;;7.47;2.92;;;2.80;99.90;;;;;;5073749;28;20240;-84
2021/04/07 07:05:06;;;;;;;6.18;2.95;;;2.80;99.90;;;;;;5076784;28;20242;-85
2021/04/07 07:07:37;;;;;;;16.15;3.95;;;2.90;99.90;;;;;;5073152;28;20310;-86
2021/04/07 07:10:08;;;;;;;6.10;2.90;;;2.80;99.90;;;;;;5075855;28;20251;-85
2021/04/07 07:12:35;;;;;;;10.73;3.17;;;3.10;99.90;;;;;;5078748;28;20210;-85
2021/04/07 07:15:05;;;;;;;4.60;3.80;;;3.00;99.90;;;;;;5078261;28;20234;-85
2021/04/07 07:17:34;;;;;;;6.10;3.10;;;2.50;99.90;;;;;;5076495;28;20195;-85
2021/04/07 07:20:01;;;;;;;7.93;3.90;;;2.50;99.90;;;;;;5071207;28;20207;-83
2021/04/07 07:22:31;;;;;;;11.07;4.30;;;2.20;99.90;;;;;;5071280;28;20206;-84
2021/04/07 07:25:01;;;;;;;6.13;3.90;;;2.20;99.90;;;;;;5072713;28;20254;-84
2021/04/07 07:27:38;;;;;;;7.90;4.70;;;2.20;99.90;;;;;;5075976;28;20262;-84
2021/04/07 07:30:07;;;;;;;9.30;3.88;;;2.30;99.90;;;;;;5079445;28;20175;-85
2021/04/07 07:32:36;;;;;;;5.85;3.78;;;2.40;99.90;;;;;;5078773;28;20195;-84
2021/04/07 07:35:07;;;;;;;9.40;4.35;;;;;;;;;;5077087;28;20253;-82
2021/04/07 07:37:33;;;;;;;9.95;4.20;;;2.50;99.90;;;;;;5076455;28;20203;-84
2021/04/07 07:40:01;;;;;;;7.22;5.70;;;2.20;99.90;;;;;;5076639;28;20211;-85
2021/04/07 07:42:28;;;;;;;9.25;4.70;;;2.70;99.90;;;;;;5076071;28;20221;-86
2021/04/07 07:44:59;;;;;;;7.13;4.40;;;2.70;99.90;;;;;;5075846;28;20327;-84
2021/04/07 07:47:34;;;;;;;8.73;4.40;;;2.80;99.90;;;;;;5075456;28;20202;-85
2021/04/07 07:50:04;;;;;;;7.60;4.25;;;2.80;99.90;;;;;;5068863;28;20197;-85
2021/04/07 07:52:32;;;;;;;8.77;4.00;;;2.90;99.90;;;;;;5068962;28;20274;-86
2021/04/07 07:55:00;;;;;;;8.70;4.15;;;3.50;99.90;;;;;;5068524;28;20219;-85
2021/04/07 07:57:27;;;;;;;6.50;4.95;;;3.00;99.90;;;;;;5071256;28;20203;-85
2021/04/07 07:59:57;;;;;;;10.35;5.00;;;2.80;99.90;;;;;;5064757;28;20203;-85
2021/04/07 08:02:28;;;;;;;11.52;5.13;;;3.30;99.90;;;;;;5065914;28;20183;-86
2021/04/07 08:04:54;;;;;;;7.53;3.90;;;3.30;99.90;;;;;;5067305;28;20230;-86
2021/04/07 08:07:21;;;;;;;15.98;6.40;;;3.30;99.90;;;;;;5072228;28;20210;-85
2021/04/07 08:09:49;;;;;;;10.35;5.78;;;3.40;99.90;;;;;;5075841;28;20207;-86
2021/04/07 08:12:16;;;;;;;20.27;7.78;;;3.50;99.90;;;;;;5068103;28;20218;-86
2021/04/07 08:14:46;;;;;;;6.43;4.50;;;3.40;99.90;;;;;;5065976;28;20215;-85
2021/04/07 08:17:23;;;;;;;9.82;4.97;;;3.20;99.90;;;;;;5069159;28;20191;-85
2021/04/07 08:19:53;;;;;;;5.95;3.58;;;3.40;99.90;;;;;;5071307;28;20198;-86
2021/04/07 08:22:26;;;;;;;6.43;2.75;;;;;;;;;;5077333;28;20175;-84
2021/04/07 08:24:54;;;;;;;5.80;3.47;;;4.30;99.90;;;;;;5076834;28;20230;-83
2021/04/07 08:27:21;;;;;;;11.43;3.13;;;4.00;99.90;;;;;;5070646;28;20203;-85
2021/04/07 08:29:49;;;;;;;8.70;3.13;;;3.60;99.90;;;;;;5069257;28;20229;-84
2021/04/07 08:32:19;;;;;;;5.72;2.83;;;3.90;99.90;;;;;;5066680;28;20257;-84
2021/04/07 08:34:46;;;;;;;9.32;4.50;;;4.10;99.90;;;;;;5066778;28;20222;-84
2021/04/07 08:37:15;;;;;;;4.75;2.38;;;4.20;99.90;;;;;;5071478;28;20210;-85
2021/04/07 08:39:43;;;;;;;9.75;3.40;;;4.40;99.90;;;;;;5070178;28;20237;-86
2021/04/07 08:42:11;;;;;;;10.43;2.72;;;4.40;99.90;;;;;;5074669;28;20254;-83
2021/04/07 08:44:45;;;;;;;10.55;3.53;;;4.00;99.90;;;;;;5077847;28;20211;-85
2021/04/07 08:47:29;;;;;;;7.40;3.28;;;4.30;99.90;;;;;;5072971;28;20194;-84
2021/04/07 08:50:16;;;;;;;8.80;3.30;;;4.60;99.90;;;;;;5073920;28;20206;-83
2021/04/07 08:52:50;;;;;;;2.83;2.45;;;6.60;99.90;;;;;;5075649;28;20191;-83
2021/04/07 08:55:23;;;;;;;3.70;3.17;;;4.40;99.90;;;;;;5073930;28;20321;-84
2021/04/07 08:58:02;;;;;;;8.23;2.78;;;4.40;99.90;;;;;;5077835;28;20168;-85
2021/04/07 09:00:34;;;;;;;11.25;3.92;;;4.40;99.90;;;;;;5078301;28;20175;-82
2021/04/07 09:03:11;;;;;;;12.23;3.35;;;4.70;99.90;;;;;;5078365;28;20171;-84
2021/04/07 09:05:39;;;;;;;2.92;2.60;;;4.90;99.90;;;;;;5078559;28;20210;-83
2021/04/07 09:08:08;;;;;;;7.88;2.83;;;4.90;99.90;;;;;;5079603;28;20211;-84
2021/04/07 09:10:45;;;;;;;9.50;3.75;;;4.70;99.90;;;;;;5072087;28;20211;-85
2021/04/07 09:13:14;;;;;;;8.82;3.80;;;5.10;99.90;;;;;;5072156;28;20183;-83
2021/04/07 09:15:55;;;;;;;9.10;2.85;;;4.80;99.90;;;;;;5078959;28;20207;-83
2021/04/07 09:18:34;;;;;;;9.55;2.72;;;4.40;99.90;;;;;;5076954;28;20198;-83
2021/04/07 09:21:01;;;;;;;5.55;2.53;;;;;;;;;;5075861;28;20278;-83
2021/04/07 09:23:29;;;;;;;7.25;2.60;;;4.90;99.90;;;;;;5075112;28;20210;-83
2021/04/07 09:25:58;;;;;;;5.28;3.00;;;5.10;99.90;;;;;;5075446;28;20207;-84
2021/04/07 09:28:33;;;;;;;6.43;2.83;;;5.00;99.90;;;;;;5076564;28;20266;-85
2021/04/07 09:31:11;;;;;;;2.85;2.10;;;6.80;99.90;;;;;;5076265;28;20210;-85
2021/04/07 09:33:39;;;;;;;4.60;2.22;;;;;;;;;;5075938;28;20226;-83
2021/04/07 09:36:09;;;;;;;10.73;2.70;;;4.90;99.90;;;;;;5075473;28;20191;-85
2021/04/07 09:38:38;;;;;;;10.10;3.00;;;5.10;99.90;;;;;;5073066;28;20199;-84
2021/04/07 09:41:11;;;;;;;7.65;2.85;;;5.60;99.90;;;;;;5069244;28;20214;-86
2021/04/07 09:43:38;;;;;;;10.88;3.15;;;5.20;99.90;;;;;;5072425;28;20223;-84
2021/04/07 09:46:06;;;;;;;9.18;2.55;;;5.30;99.90;;;;;;5067031;28;20230;-86
2021/04/07 09:48:45;;;;;;;11.43;6.63;;;5.30;99.90;;;;;;5066167;28;20222;-84
2021/04/07 09:51:26;;;;;;;8.05;3.67;;;4.10;99.90;;;;;;5065104;28;20549;-85
2021/04/07 09:53:54;;;;;;;5.53;3.15;;;5.20;99.90;;;;;;5065225;28;20799;-84
2021/04/07 09:56:20;;;;;;;4.30;2.95;;;5.20;99.90;;;;;;5066319;28;20220;-85
2021/04/07 09:58:48;;;;;;;11.95;3.08;;;5.70;99.90;;;;;;5067306;28;20215;-87
2021/04/07 10:01:16;;;;;;;7.85;3.00;;;5.70;99.90;;;;;;5066415;28;20214;-83
2021/04/07 10:03:50;;;;;;;9.02;2.70;;;5.70;99.90;;;;;;5071184;28;20241;-84
2021/04/07 10:06:21;;;;;;;8.27;3.55;;;5.90;99.90;;;;;;5072118;28;20222;-87
2021/04/07 10:08:58;;;;;;;9.88;3.90;;;5.80;99.90;;;;;;5068987;28;20199;-85
2021/04/07 10:11:25;;;;;;;7.85;3.53;;;5.90;99.90;;;;;;5075589;28;20219;-85
2021/04/07 10:13:51;;;;;;;8.82;3.28;;;6.60;99.90;;;;;;5077583;28;20225;-85
2021/04/07 10:16:17;;;;;;;4.97;2.88;;;6.30;99.90;;;;;;5074198;28;20198;-86
2021/04/07 10:18:47;;;;;;;8.43;2.53;;;6.10;99.90;;;;;;5069952;28;20207;-86
2021/04/07 10:21:16;;;;;;;5.07;3.60;;;6.10;99.90;;;;;;5075559;28;20218;-86
2021/04/07 10:23:44;;;;;;;8.57;3.30;;;5.80;99.90;;;;;;5123809;22;20219;-82
2021/04/07 10:26:10;;;;;;;6.28;2.63;;;5.60;99.90;;;;;;5070984;28;20223;-82
2021/04/07 10:28:37;;;;;;;4.07;2.72;;;5.90;99.90;;;;;;5068718;28;20206;-83
2021/04/07 10:31:09;;;;;;;5.50;3.30;;;6.00;99.90;;;;;;5074467;28;20203;-83
2021/04/07 10:33:35;;;;;;;7.53;2.85;;;5.80;99.90;;;;;;5073575;28;20575;-82
2021/04/07 10:36:03;;;;;;;9.02;2.40;;;5.80;99.90;;;;;;5070945;28;20233;-83
2021/04/07 10:38:32;;;;;;;9.50;6.30;;;6.00;99.90;;;;;;5076825;28;20198;-83
2021/04/07 10:40:59;;;;;;;3.45;2.45;;;6.00;99.90;;;;;;5078383;28;20206;-82
2021/04/07 10:43:31;;;;;;;3.17;2.25;;;5.90;99.90;;;;;;5078665;28;20207;-83
2021/04/07 10:45:58;;;;;;;7.05;3.65;;;6.10;99.90;;;;;;5069956;28;20208;-83
2021/04/07 10:48:24;;;;;;;4.50;2.90;;;6.30;99.90;;;;;;5071143;28;20229;-82
2021/04/07 10:50:50;;;;;;;8.95;3.60;;;6.50;99.90;;;;;;5066840;28;20260;-83
2021/04/07 10:53:28;;;;;;;4.25;2.67;;;6.80;99.90;;;;;;5066639;28;20200;-83
2021/04/07 10:55:55;;;;;;;4.50;2.30;;;7.00;99.90;;;;;;5066748;28;20249;-83
2021/04/07 10:58:29;;;;;;;6.22;2.30;;;6.70;99.90;;;;;;5066512;28;20210;-83
2021/04/07 11:00:57;;;;;;;3.88;2.40;;;6.40;99.90;;;;;;5066363;28;20233;-83
2021/04/07 11:03:31;;;;;;;12.50;3.05;;;6.40;99.90;;;;;;5067263;28;20214;-83
2021/04/07 11:05:58;;;;;;;4.53;2.92;;;6.30;99.90;;;;;;5067979;28;20248;-83
2021/04/07 11:08:35;;;;;;;8.32;2.83;;;6.20;99.90;;;;;;5067309;28;20203;-83
2021/04/07 11:11:03;;;;;;;4.28;2.75;;;6.90;99.90;;;;;;5070147;28;20191;-83
2021/04/07 11:13:30;;;;;;;3.25;2.30;;;5.90;99.90;;;;;;5074005;28;20256;-81
2021/04/07 11:16:07;;;;;;;4.40;2.05;;;5.90;99.90;;;;;;5076517;28;20294;-81
2021/04/07 11:18:33;;;;;;;5.05;2.10;;;5.80;99.90;;;;;;5075849;28;20254;-82
2021/04/07 11:21:00;;;;;;;3.83;2.58;;;5.90;99.90;;;;;;5072794;28;20237;-82
2021/04/07 11:23:26;;;;;;;4.30;2.53;;;6.00;99.90;;;;;;5069789;28;20210;-82
2021/04/07 11:25:52;;;;;;;5.95;2.83;;;5.80;99.90;;;;;;5068249;28;20231;-81
2021/04/07 11:28:22;;;;;;;4.35;2.13;;;5.80;99.90;;;;;;5065707;28;20203;-82
2021/04/07 11:31:05;;;;;;;9.25;3.30;;;5.80;99.90;;;;;;5064978;28;20252;-81
2021/04/07 11:33:38;;;;;;;4.85;1.83;;;5.80;99.90;;;;;;5066627;28;20513;-83
2021/04/07 11:36:09;;;;;;;3.70;2.08;;;5.80;99.90;;;;;;5065777;28;20191;-83
2021/04/07 11:38:36;;;;;;;2.63;2.17;;;5.80;99.90;;;;;;5064984;28;20229;-82
2021/04/07 11:46:35;;;;;;;4.15;2.17;;;5.70;99.90;;;;;;5066970;28;20206;-82
2021/04/07 11:49:02;;;;;;;6.13;2.65;;;6.00;99.90;;;;;;5067898;28;20211;-83
2021/04/07 11:51:28;;;;;;;6.07;2.22;;;5.90;99.90;;;;;;5067580;28;20237;-82
2021/04/07 11:53:54;;;;;;;2.70;2.30;;;5.90;99.90;;;;;;5070997;28;20250;-82
2021/04/07 11:56:20;;;;;;;6.50;2.78;;;5.90;99.90;;;;;;5072246;28;20671;-81
2021/04/07 11:58:46;;;;;;;6.50;2.70;;;5.90;99.90;;;;;;5071352;28;20214;-81
2021/04/07 12:01:13;;;;;;;3.15;2.17;;;5.80;99.90;;;;;;5070658;28;20294;-83
2021/04/07 12:03:39;;;;;;;4.32;2.15;;;6.00;99.90;;;;;;5067981;28;20673;-83
2021/04/07 12:06:06;;;;;;;3.20;2.60;;;6.00;99.90;;;;;;5069523;28;20249;-82
2021/04/07 12:08:32;;;;;;;5.90;2.28;;;5.90;99.90;;;;;;5070209;28;20198;-82
2021/04/07 12:10:59;;;;;;;3.95;1.90;;;5.90;99.90;;;;;;5068506;28;20206;-82
2021/04/07 12:13:26;;;;;;;3.15;1.80;;;5.70;99.90;;;;;;5066122;28;20297;-82
2021/04/07 12:15:52;;;;;;;2.65;2.10;;;5.50;99.90;;;;;;5066336;28;20221;-84
2021/04/07 12:18:19;;;;;;;3.53;2.30;;;5.90;99.90;;;;;;5065135;28;20217;-82
2021/04/07 12:20:46;;;;;;;2.22;1.70;;;5.90;99.90;;;;;;5065565;28;20214;-82
2021/04/07 12:23:13;;;;;;;6.13;2.08;;;6.30;99.90;;;;;;5065704;28;20198;-82
2021/04/07 12:25:39;;;;;;;2.75;1.73;;;6.30;99.90;;;;;;5064413;28;20230;-83
2021/04/07 12:28:06;;;;;;;2.30;2.03;;;6.10;99.90;;;;;;5065993;28;20234;-81
2021/04/07 12:30:46;;;;;;;5.07;1.85;;;6.10;99.90;;;;;;5065210;28;20203;-83
2021/04/07 12:33:13;;;;;;;3.63;1.90;;;5.90;99.90;;;;;;5064751;28;20229;-83
2021/04/07 12:35:40;;;;;;;5.95;2.33;;;6.10;99.90;;;;;;5064135;28;20302;-83
2021/04/07 12:38:06;;;;;;;4.05;2.03;;;5.70;99.90;;;;;;5064285;28;20317;-82
2021/04/07 12:40:32;;;;;;;2.05;1.85;;;5.70;99.90;;;;;;5065934;28;20210;-82
2021/04/07 12:42:58;;;;;;;4.22;2.83;;;5.70;99.90;;;;;;5067975;28;20217;-83
2021/04/07 12:45:24;;;;;;;5.35;2.45;;;5.90;99.90;;;;;;5067889;28;20245;-83
2021/04/07 12:47:50;;;;;;;3.83;2.60;;;6.20;99.90;;;;;;5067412;28;20257;-82
2021/04/07 12:50:17;;;;;;;3.55;3.25;;;6.40;99.90;;;;;;5067177;28;20272;-83
2021/04/07 12:52:44;;;;;;;3.30;2.10;;;6.60;99.90;;;;;;5067158;28;20207;-83
2021/04/07 12:55:11;;;;;;;2.88;2.00;;;6.50;99.90;;;;;;5068758;28;20231;-85
2021/04/07 12:57:37;;;;;;;4.05;2.05;;;6.10;99.90;;;;;;5068449;28;20203;-83
2021/04/07 13:00:04;;;;;;;2.40;2.22;;;6.20;99.90;;;;;;5067531;28;20199;-82
2021/04/07 13:02:30;;;;;;;2.97;2.70;;;6.40;99.90;;;;;;5067860;28;20202;-83
2021/04/07 13:04:56;;;;;;;4.40;2.80;;;6.40;99.90;;;;;;5067930;28;20219;-83
2021/04/07 13:07:22;;;;;;;8.55;5.30;;;6.30;99.90;;;;;;5068435;28;20206;-83
2021/04/07 13:09:51;;;;;;;3.30;3.00;;;6.40;99.90;;;;;;5067643;28;20257;-83
2021/04/07 13:12:17;;;;;;;2.97;2.10;;;6.50;99.90;;;;;;5067188;28;20251;-83
2021/04/07 13:14:44;;;;;;;2.90;2.22;;;6.30;99.90;;;;;;5067891;28;20223;-82